Hobbs, New Mexico
Current Conditions -  °F | °C
As of 1:15 AM on Tuesday 21 Oct 2014 (Local Time) from KHOB Reporting Station
Clear Clear  
Wind Chill: 57°   Ceiling: Unl
Heat Index: 57°   Visibility: 10mi
Dew Point: 57°   Wind: 5mph
Humidity: 100%   Direction: 20°NNE
Pressure: 30.12"   Gusts: NA
Location:  32.7°N, 103.12°W
Report Text: KHOB 210715Z AUTO 02004KT 10SM CLR 14/14 A3012 RMK AO2
Loading
Personal Weather Stations






























Interactive Weather Map
Tropical Storm Tracking
New forecast layout! Learn more

10-Day Weather Forecast

Advertisements
Track Severe Weather on mobile